Time;durP1;ratioP1;P1;durP2;ratioP2;P2;SDS_P1;SDS_P2;PMS_P1;PMS_P2;Temp;Humidity;BMP_temperature;BMP_pressure;BME280_temperature;BME280_humidity;BME280_pressure;Samples;Min_cycle;Max_cycle;Signal;HPM_P1;HPM_P2
2022/10/06 00:01:24;;;;;;;5.25;2.10;;;;;;;;;;6146570;23;20002;-73
2022/10/06 00:04:09;;;;;;;8.38;2.28;;;;;;;;;;6146401;23;20484;-74
2022/10/06 00:06:55;;;;;;;7.97;2.10;;;;;;;;;;6144326;23;20035;-73
2022/10/06 00:09:41;;;;;;;8.32;2.30;;;;;;;;;;6147318;23;20037;-74
2022/10/06 00:12:27;;;;;;;6.97;2.60;;;;;;;;;;6146101;23;20060;-73
2022/10/06 00:15:16;;;;;;;10.90;2.95;;;;;;;;;;6146410;23;20096;-72
2022/10/06 00:18:01;;;;;;;5.90;2.47;;;;;;;;;;6146247;23;20009;-69
2022/10/06 00:20:54;;;;;;;7.07;2.33;;;;;;;;;;6146698;23;20139;-70
2022/10/06 00:23:39;;;;;;;9.00;2.38;;;;;;;;;;6151106;23;20115;-69
2022/10/06 00:26:26;;;;;;;4.90;2.45;;;;;;;;;;6145143;23;20009;-68
2022/10/06 00:29:12;;;;;;;3.03;1.95;;;;;;;;;;6145676;23;20013;-68
2022/10/06 00:31:57;;;;;;;6.80;2.92;;;;;;;;;;6143615;23;20020;-69
2022/10/06 00:34:43;;;;;;;6.28;3.10;;;;;;;;;;6144953;23;20105;-75
2022/10/06 00:37:33;;;;;;;8.30;3.38;;;;;;;;;;6145016;23;20100;-72
2022/10/06 00:40:19;;;;;;;5.03;2.67;;;;;;;;;;6145635;23;20009;-72
2022/10/06 00:43:05;;;;;;;8.02;2.80;;;;;;;;;;6146491;23;20437;-72
2022/10/06 00:45:50;;;;;;;5.32;3.10;;;;;;;;;;6144855;23;20013;-70
2022/10/06 00:48:37;;;;;;;7.75;3.15;;;;;;;;;;6146692;23;20440;-72
2022/10/06 00:51:22;;;;;;;4.25;2.40;;;;;;;;;;6145426;23;20429;-72
2022/10/06 00:54:08;;;;;;;5.78;2.10;;;;;;;;;;6150809;23;20025;-71
2022/10/06 00:56:54;;;;;;;5.32;2.58;;;;;;;;;;6144813;23;20013;-73
2022/10/06 00:59:40;;;;;;;5.90;2.75;;;;;;;;;;6146300;23;20080;-74
2022/10/06 01:02:31;;;;;;;4.85;2.83;;;;;;;;;;6145730;23;20333;-71
2022/10/06 01:05:24;;;;;;;3.45;2.20;;;;;;;;;;6144044;23;20017;-72
2022/10/06 01:08:10;;;;;;;8.07;2.65;;;;;;;;;;6146736;23;20006;-70
2022/10/06 01:10:55;;;;;;;11.73;2.70;;;;;;;;;;6145591;23;20085;-71
2022/10/06 01:13:42;;;;;;;5.50;2.40;;;;;;;;;;6144750;23;20016;-76
2022/10/06 01:16:28;;;;;;;6.40;2.47;;;;;;;;;;6124849;22;20009;-71
2022/10/06 01:19:24;;;;;;;6.65;2.40;;;;;;;;;;6145335;23;20486;-71
2022/10/06 01:22:12;;;;;;;6.32;3.00;;;;;;;;;;6146159;23;20333;-71
2022/10/06 01:24:57;;;;;;;8.35;2.88;;;;;;;;;;6128853;23;20051;-71
2022/10/06 01:27:45;;;;;;;8.60;2.42;;;;;;;;;;6150286;23;20037;-72
2022/10/06 01:30:35;;;;;;;6.38;2.50;;;;;;;;;;6145734;23;20012;-69
2022/10/06 01:33:20;;;;;;;6.50;2.42;;;;;;;;;;6146204;23;20014;-70
2022/10/06 01:36:06;;;;;;;6.20;2.17;;;;;;;;;;6145427;23;20096;-71
2022/10/06 01:38:52;;;;;;;5.25;2.55;;;;;;;;;;6124425;23;20048;-70
2022/10/06 01:41:37;;;;;;;6.00;2.42;;;;;;;;;;6145609;23;20067;-69
2022/10/06 01:44:23;;;;;;;4.13;2.65;;;;;;;;;;6144420;23;20409;-69
2022/10/06 01:47:08;;;;;;;5.40;2.85;;;;;;;;;;6145169;23;20060;-69
2022/10/06 01:49:54;;;;;;;7.03;2.70;;;;;;;;;;6143971;23;20441;-69
2022/10/06 01:52:40;;;;;;;6.60;2.58;;;;;;;;;;6230906;22;20361;-72
2022/10/06 01:55:25;;;;;;;7.15;3.17;;;;;;;;;;6144610;23;20014;-73
2022/10/06 01:58:11;;;;;;;5.95;2.30;;;;;;;;;;6151311;23;20233;-74
2022/10/06 02:00:57;;;;;;;3.97;2.28;;;;;;;;;;6146322;23;20013;-70
2022/10/06 02:03:42;;;;;;;4.50;2.30;;;;;;;;;;6144938;23;20339;-73
2022/10/06 02:06:28;;;;;;;6.28;2.55;;;;;;;;;;6145789;23;20101;-70
2022/10/06 02:09:13;;;;;;;8.18;2.70;;;;;;;;;;6124424;23;20063;-70
2022/10/06 02:11:59;;;;;;;4.30;2.35;;;;;;;;;;6144533;23;20021;-71
2022/10/06 02:14:44;;;;;;;3.58;2.25;;;;;;;;;;6123850;23;20019;-71
2022/10/06 02:17:30;;;;;;;5.82;2.58;;;;;;;;;;6144192;23;20324;-70
2022/10/06 02:20:16;;;;;;;4.95;2.17;;;;;;;;;;6145125;23;20013;-71
2022/10/06 02:23:01;;;;;;;13.57;2.72;;;;;;;;;;6144857;23;20132;-71
2022/10/06 02:25:47;;;;;;;6.65;2.88;;;;;;;;;;6143727;23;20020;-72
2022/10/06 02:28:34;;;;;;;4.95;2.33;;;;;;;;;;6146094;23;20353;-69
2022/10/06 02:31:19;;;;;;;5.80;2.35;;;;;;;;;;6129447;23;20005;-68
2022/10/06 02:34:05;;;;;;;5.63;2.50;;;;;;;;;;6146055;23;20368;-69
2022/10/06 02:36:50;;;;;;;10.18;2.72;;;;;;;;;;6145412;23;20063;-69
2022/10/06 02:39:36;;;;;;;4.05;2.30;;;;;;;;;;6144264;23;20087;-69
2022/10/06 02:42:21;;;;;;;6.55;2.65;;;;;;;;;;6144005;23;20006;-70
2022/10/06 02:45:07;;;;;;;4.95;2.47;;;;;;;;;;6144366;23;20014;-76
2022/10/06 02:47:53;;;;;;;5.82;2.60;;;;;;;;;;6143485;23;20021;-69
2022/10/06 02:50:39;;;;;;;4.55;2.50;;;;;;;;;;6144152;23;20009;-69
2022/10/06 02:53:25;;;;;;;8.25;2.90;;;;;;;;;;6141620;23;20055;-68
2022/10/06 02:56:11;;;;;;;8.98;2.80;;;;;;;;;;6143461;23;20541;-68
2022/10/06 02:58:57;;;;;;;3.80;2.47;;;;;;;;;;6144234;23;20317;-68
2022/10/06 03:01:42;;;;;;;6.50;2.78;;;;;;;;;;6146397;23;20397;-73
2022/10/06 03:04:28;;;;;;;9.45;2.50;;;;;;;;;;6146029;23;20084;-76
2022/10/06 03:07:14;;;;;;;6.07;2.55;;;;;;;;;;6144493;23;20016;-76
2022/10/06 03:10:00;;;;;;;8.40;2.65;;;;;;;;;;6144694;23;20016;-75
2022/10/06 03:12:45;;;;;;;4.60;2.55;;;;;;;;;;6149200;23;20591;-77
2022/10/06 03:15:31;;;;;;;9.25;2.97;;;;;;;;;;6145785;23;20049;-76
2022/10/06 03:18:16;;;;;;;8.65;2.58;;;;;;;;;;6146529;23;20009;-76
2022/10/06 03:21:02;;;;;;;8.35;2.58;;;;;;;;;;6146462;23;20014;-68
2022/10/06 03:23:49;;;;;;;5.63;2.10;;;;;;;;;;6143869;23;20032;-78
2022/10/06 03:26:36;;;;;;;7.72;3.03;;;;;;;;;;6148401;23;20071;-76
2022/10/06 03:29:22;;;;;;;6.00;2.97;;;;;;;;;;6150759;23;20059;-76
2022/10/06 03:32:07;;;;;;;6.18;2.40;;;;;;;;;;6147716;23;20005;-76
2022/10/06 03:34:53;;;;;;;4.38;1.75;;;;;;;;;;6154149;23;20002;-75
2022/10/06 03:37:38;;;;;;;9.38;2.60;;;;;;;;;;6146098;23;20454;-77
2022/10/06 03:40:24;;;;;;;5.88;2.50;;;;;;;;;;6146196;23;20010;-68
2022/10/06 03:43:09;;;;;;;6.28;2.40;;;;;;;;;;6145796;23;20081;-71
2022/10/06 03:45:56;;;;;;;7.03;2.63;;;;;;;;;;6126335;23;20018;-71
2022/10/06 03:48:41;;;;;;;8.40;3.20;;;;;;;;;;6147582;23;20013;-72
2022/10/06 03:51:30;;;;;;;6.30;2.25;;;;;;;;;;6146596;23;20035;-72
2022/10/06 03:54:15;;;;;;;4.63;2.63;;;;;;;;;;6148089;23;20014;-71
2022/10/06 03:57:01;;;;;;;4.47;2.65;;;;;;;;;;6146316;23;20014;-75
2022/10/06 03:59:46;;;;;;;6.30;3.13;;;;;;;;;;6146622;23;20059;-71
2022/10/06 04:02:32;;;;;;;5.00;2.47;;;;;;;;;;6125748;23;20423;-70
2022/10/06 04:05:17;;;;;;;4.32;2.50;;;;;;;;;;6147156;23;20009;-69
2022/10/06 04:08:03;;;;;;;4.75;2.58;;;;;;;;;;6149600;23;20020;-71
2022/10/06 04:10:49;;;;;;;5.65;2.67;;;;;;;;;;6127048;23;20009;-73
2022/10/06 04:13:34;;;;;;;6.30;2.47;;;;;;;;;;6146991;23;20025;-70
2022/10/06 04:16:23;;;;;;;6.97;2.50;;;;;;;;;;6147053;23;20020;-76
2022/10/06 04:19:10;;;;;;;4.68;2.75;;;;;;;;;;6147259;23;20013;-75
2022/10/06 04:21:55;;;;;;;5.95;2.40;;;;;;;;;;6147010;23;20013;-76
2022/10/06 04:24:41;;;;;;;6.07;2.80;;;;;;;;;;6125726;23;20076;-76
2022/10/06 04:27:26;;;;;;;8.02;3.55;;;;;;;;;;6147104;23;20089;-75
2022/10/06 04:30:12;;;;;;;6.47;2.65;;;;;;;;;;6146100;23;20429;-75
2022/10/06 04:32:57;;;;;;;6.43;2.60;;;;;;;;;;6126486;23;20013;-75
2022/10/06 04:35:43;;;;;;;5.38;2.80;;;;;;;;;;6145428;23;20075;-72
2022/10/06 04:38:31;;;;;;;7.38;2.72;;;;;;;;;;6154882;23;20058;-70
2022/10/06 04:41:17;;;;;;;4.32;2.25;;;;;;;;;;6146856;23;20009;-72
2022/10/06 04:44:04;;;;;;;6.25;3.20;;;;;;;;;;6147918;23;20442;-70
2022/10/06 04:46:49;;;;;;;9.13;2.67;;;;;;;;;;6151371;22;20096;-71
2022/10/06 04:49:35;;;;;;;7.10;2.92;;;;;;;;;;6144479;23;20099;-70
2022/10/06 04:52:21;;;;;;;8.60;3.08;;;;;;;;;;6143232;23;20364;-73
2022/10/06 04:55:07;;;;;;;6.25;3.08;;;;;;;;;;6146877;23;20001;-71
2022/10/06 04:57:53;;;;;;;7.88;2.97;;;;;;;;;;6231438;22;20370;-74
2022/10/06 05:00:39;;;;;;;7.85;3.55;;;;;;;;;;6146685;23;20009;-72
2022/10/06 05:03:28;;;;;;;6.05;3.20;;;;;;;;;;6148097;22;20333;-71
2022/10/06 05:06:19;;;;;;;5.88;3.25;;;;;;;;;;6125890;22;20033;-71
2022/10/06 05:09:08;;;;;;;14.05;3.63;;;;;;;;;;6147464;23;20013;-72
2022/10/06 05:11:54;;;;;;;8.05;3.60;;;;;;;;;;6150595;23;20052;-71
2022/10/06 05:14:39;;;;;;;5.82;3.05;;;;;;;;;;6124458;23;20016;-73
2022/10/06 05:17:25;;;;;;;7.35;3.15;;;;;;;;;;6147044;23;20436;-72
2022/10/06 05:20:10;;;;;;;6.95;2.42;;;;;;;;;;6143972;23;20013;-73
2022/10/06 05:22:56;;;;;;;9.95;2.97;;;;;;;;;;6145628;23;20018;-72
2022/10/06 05:25:48;;;;;;;7.55;3.13;;;;;;;;;;6145143;23;20014;-73
2022/10/06 05:28:34;;;;;;;8.48;3.35;;;;;;;;;;6145839;23;20013;-73
2022/10/06 05:31:21;;;;;;;5.88;3.00;;;;;;;;;;6146682;23;20306;-73
2022/10/06 05:34:06;;;;;;;7.10;3.45;;;;;;;;;;6145845;23;20005;-74
2022/10/06 05:36:52;;;;;;;8.38;3.90;;;;;;;;;;6143841;23;20035;-73
2022/10/06 05:39:37;;;;;;;8.10;3.75;;;;;;;;;;6145395;23;20013;-71
2022/10/06 05:42:23;;;;;;;6.63;3.17;;;;;;;;;;6151349;23;20065;-71
2022/10/06 05:45:09;;;;;;;7.80;2.80;;;;;;;;;;6142325;23;20515;-71
2022/10/06 05:47:54;;;;;;;7.50;3.35;;;;;;;;;;6123365;23;20013;-74
2022/10/06 05:50:40;;;;;;;11.70;3.97;;;;;;;;;;6142217;23;20010;-70
2022/10/06 05:53:26;;;;;;;7.55;3.28;;;;;;;;;;6138378;23;20013;-67
2022/10/06 05:56:13;;;;;;;6.28;3.30;;;;;;;;;;6125816;23;20006;-68
2022/10/06 05:58:59;;;;;;;8.95;4.07;;;;;;;;;;6142035;23;20024;-70
2022/10/06 06:01:45;;;;;;;10.85;4.03;;;;;;;;;;6143715;23;20009;-70
2022/10/06 06:04:31;;;;;;;5.97;3.35;;;;;;;;;;6145555;23;20005;-72
2022/10/06 06:07:16;;;;;;;8.88;3.42;;;;;;;;;;6141829;23;20204;-72
2022/10/06 06:10:03;;;;;;;11.23;3.97;;;;;;;;;;6144145;23;20024;-72
2022/10/06 06:12:49;;;;;;;6.93;3.22;;;;;;;;;;6124992;22;20088;-72
2022/10/06 06:18:39;;;;;;;6.28;3.50;;;;;;;;;;6143874;23;20032;-72
2022/10/06 06:21:25;;;;;;;7.82;3.78;;;;;;;;;;6122020;22;20058;-73
2022/10/06 06:24:11;;;;;;;8.38;3.65;;;;;;;;;;6122533;23;20010;-69
2022/10/06 06:26:56;;;;;;;5.40;3.22;;;;;;;;;;6150067;22;20020;-72
2022/10/06 06:29:42;;;;;;;8.60;3.03;;;;;;;;;;6143034;23;20088;-72
2022/10/06 06:32:28;;;;;;;6.80;3.28;;;;;;;;;;6144922;23;20009;-77
2022/10/06 06:35:13;;;;;;;5.78;3.20;;;;;;;;;;6141727;23;20369;-77
2022/10/06 06:37:59;;;;;;;7.47;3.30;;;;;;;;;;6142676;23;20048;-76
2022/10/06 06:40:44;;;;;;;10.05;3.00;;;;;;;;;;6143405;23;20086;-76
2022/10/06 06:43:30;;;;;;;8.18;3.47;;;;;;;;;;6144510;23;20008;-78
2022/10/06 06:46:16;;;;;;;4.80;3.03;;;;;;;;;;6149205;23;20008;-71
2022/10/06 06:49:03;;;;;;;6.50;3.50;;;;;;;;;;6143495;23;20071;-72
2022/10/06 06:51:48;;;;;;;7.10;3.33;;;;;;;;;;6143746;23;20010;-72
2022/10/06 06:54:34;;;;;;;9.27;3.85;;;;;;;;;;6146735;22;20006;-71
2022/10/06 06:57:20;;;;;;;6.90;3.78;;;;;;;;;;6144233;23;20017;-72
2022/10/06 07:00:07;;;;;;;11.07;3.70;;;;;;;;;;6141140;23;20070;-70
2022/10/06 07:02:59;;;;;;;8.05;3.25;;;;;;;;;;6143707;22;20088;-70
2022/10/06 07:05:45;;;;;;;12.93;5.38;;;;;;;;;;6123397;23;20045;-70
2022/10/06 07:08:30;;;;;;;7.75;3.83;;;;;;;;;;6147746;23;20498;-71
2022/10/06 07:11:21;;;;;;;8.73;3.45;;;;;;;;;;6146963;23;20006;-72
2022/10/06 07:14:07;;;;;;;7.28;4.05;;;;;;;;;;6147644;23;20021;-72
2022/10/06 07:26:06;;;;;;;6.53;3.33;;;;;;;;;;6141611;23;20013;-68
2022/10/06 07:28:51;;;;;;;10.88;3.75;;;;;;;;;;6134282;23;20219;-68
2022/10/06 07:31:38;;;;;;;7.57;4.07;;;;;;;;;;6138740;23;20086;-70
2022/10/06 07:34:23;;;;;;;9.82;3.63;;;;;;;;;;6149350;22;20024;-68
2022/10/06 07:37:09;;;;;;;9.90;4.38;;;;;;;;;;6145017;23;20009;-67
2022/10/06 07:39:54;;;;;;;6.28;3.40;;;;;;;;;;6144008;23;20054;-73
2022/10/06 07:42:52;;;;;;;5.63;3.10;;;;;;;;;;6139631;23;20397;-80
2022/10/06 07:45:39;;;;;;;13.63;4.10;;;;;;;;;;6146029;23;20020;-78
2022/10/06 07:48:25;;;;;;;7.60;3.25;;;;;;;;;;6147357;23;20081;-80
2022/10/06 07:51:14;;;;;;;9.82;3.83;;;;;;;;;;6152110;23;20033;-81
2022/10/06 07:54:00;;;;;;;7.03;2.90;;;;;;;;;;6147421;23;20013;-80
2022/10/06 07:56:45;;;;;;;7.07;3.78;;;;;;;;;;6145330;23;20017;-72
2022/10/06 07:59:33;;;;;;;6.38;3.47;;;;;;;;;;6145623;23;20009;-79
2022/10/06 08:02:19;;;;;;;5.15;2.50;;;;;;;;;;6146748;23;20014;-79
2022/10/06 08:05:05;;;;;;;4.80;2.30;;;;;;;;;;6146221;23;20432;-79
2022/10/06 08:07:52;;;;;;;5.38;2.53;;;;;;;;;;6147859;23;20318;-77
2022/10/06 08:10:37;;;;;;;6.22;2.20;;;;;;;;;;6148274;22;20005;-77
2022/10/06 08:13:23;;;;;;;2.95;2.00;;;;;;;;;;6145311;23;20087;-78
2022/10/06 08:16:11;;;;;;;3.72;2.20;;;;;;;;;;6144834;23;20445;-70
2022/10/06 08:18:57;;;;;;;4.97;2.10;;;;;;;;;;6126791;23;20045;-72
2022/10/06 08:21:43;;;;;;;3.92;1.70;;;;;;;;;;6150570;23;20013;-73
2022/10/06 08:24:28;;;;;;;3.35;1.88;;;;;;;;;;6148838;23;20002;-73
2022/10/06 08:27:14;;;;;;;5.05;2.08;;;;;;;;;;6144199;23;20010;-72
2022/10/06 08:29:59;;;;;;;5.28;1.75;;;;;;;;;;6146888;23;20348;-72
2022/10/06 08:32:46;;;;;;;6.10;1.77;;;;;;;;;;6146425;23;20006;-76
2022/10/06 08:35:32;;;;;;;7.22;2.33;;;;;;;;;;6147466;23;20014;-77
2022/10/06 08:38:18;;;;;;;4.40;2.20;;;;;;;;;;6146270;23;20010;-73
2022/10/06 08:41:16;;;;;;;6.57;1.70;;;;;;;;;;6146291;23;20063;-74
2022/10/06 08:44:05;;;;;;;4.05;1.90;;;;;;;;;;6125520;23;20009;-72
2022/10/06 08:47:00;;;;;;;6.43;1.83;;;;;;;;;;6123648;23;20421;-73
2022/10/06 08:49:46;;;;;;;3.20;1.33;;;;;;;;;;6145819;23;20081;-72
2022/10/06 08:52:51;;;;;;;6.05;1.42;;;;;;;;;;6124784;23;20401;-73
2022/10/06 08:55:41;;;;;;;4.63;1.52;;;;;;;;;;6151751;22;20041;-71
2022/10/06 08:58:50;;;;;;;4.45;1.83;;;;;;;;;;6146178;23;20010;-72
2022/10/06 09:01:40;;;;;;;6.10;1.40;;;;;;;;;;6145732;23;20015;-72
2022/10/06 09:04:29;;;;;;;2.80;1.15;;;;;;;;;;6146015;23;20010;-72
2022/10/06 09:07:20;;;;;;;4.60;1.65;;;;;;;;;;6124651;23;20017;-73
2022/10/06 09:10:17;;;;;;;3.63;1.70;;;;;;;;;;6146965;23;20005;-72
2022/10/06 09:13:05;;;;;;;5.00;1.33;;;;;;;;;;6144993;23;20067;-72
2022/10/06 09:16:06;;;;;;;3.03;1.42;;;;;;;;;;6146644;23;20017;-72
2022/10/06 09:18:54;;;;;;;4.22;1.48;;;;;;;;;;6147059;23;20005;-71
2022/10/06 09:21:44;;;;;;;9.13;1.50;;;;;;;;;;6146446;23;20021;-70
2022/10/06 09:24:32;;;;;;;6.90;2.03;;;;;;;;;;6146850;23;20368;-71
2022/10/06 09:27:29;;;;;;;4.80;1.73;;;;;;;;;;6151712;23;20013;-72
2022/10/06 09:30:15;;;;;;;4.82;1.50;;;;;;;;;;6146246;23;20041;-78
2022/10/06 09:33:02;;;;;;;4.38;1.55;;;;;;;;;;6145655;23;20013;-70
2022/10/06 09:36:05;;;;;;;6.07;2.10;;;;;;;;;;6146602;23;20005;-69
2022/10/06 09:38:54;;;;;;;5.45;1.40;;;;;;;;;;6125382;22;20376;-70
2022/10/06 09:41:39;;;;;;;;;;;;;;;;;;6145716;23;20051;-70
2022/10/06 09:44:28;;;;;;;4.50;1.75;;;;;;;;;;6146204;23;19916;-69
2022/10/06 09:47:21;;;;;;;4.55;1.85;;;;;;;;;;6144956;23;20020;-69
2022/10/06 09:50:15;;;;;;;7.60;1.88;;;;;;;;;;6145791;23;20005;-71
2022/10/06 09:53:02;;;;;;;6.18;1.60;;;;;;;;;;6148552;22;20013;-72
2022/10/06 09:55:50;;;;;;;5.90;1.85;;;;;;;;;;6145831;23;20002;-71
2022/10/06 09:58:38;;;;;;;6.40;1.75;;;;;;;;;;6153836;23;20002;-73
2022/10/06 10:01:25;;;;;;;5.38;1.95;;;;;;;;;;6146060;23;20059;-71
2022/10/06 10:04:20;;;;;;;5.57;1.40;;;;;;;;;;6145243;23;20021;-71
2022/10/06 10:07:23;;;;;;;3.17;1.63;;;;;;;;;;6144305;23;20508;-71
2022/10/06 10:10:17;;;;;;;4.65;1.70;;;;;;;;;;6146250;23;20014;-71
2022/10/06 10:13:16;;;;;;;5.50;1.40;;;;;;;;;;6144562;23;20010;-71
2022/10/06 10:16:01;;;;;;;4.50;1.80;;;;;;;;;;6145383;23;20016;-71
2022/10/06 10:18:49;;;;;;;8.02;1.98;;;;;;;;;;6145004;23;20016;-73
2022/10/06 10:21:36;;;;;;;7.13;1.90;;;;;;;;;;6145392;23;20024;-71
2022/10/06 10:24:27;;;;;;;7.25;1.75;;;;;;;;;;6145357;23;20009;-70
2022/10/06 10:27:19;;;;;;;5.50;1.70;;;;;;;;;;6144487;23;20041;-75
2022/10/06 10:30:09;;;;;;;7.85;2.03;;;;;;;;;;6129737;23;20065;-75
2022/10/06 10:33:08;;;;;;;3.10;1.50;;;;;;;;;;6127555;23;20005;-74
2022/10/06 10:35:55;;;;;;;8.32;1.83;;;;;;;;;;6123387;23;20420;-73
2022/10/06 10:38:42;;;;;;;6.40;2.10;;;;;;;;;;6145996;23;20084;-74
2022/10/06 10:41:33;;;;;;;5.50;1.67;;;;;;;;;;6125138;23;20020;-72
2022/10/06 10:44:32;;;;;;;6.20;1.52;;;;;;;;;;6235174;22;20081;-73
2022/10/06 10:47:37;;;;;;;6.27;2.70;;;;;;;;;;6145339;23;20321;-79
2022/10/06 10:50:27;;;;;;;6.10;1.70;;;;;;;;;;6147776;23;20021;-78
2022/10/06 10:53:15;;;;;;;6.45;1.77;;;;;;;;;;6149229;23;20014;-79
2022/10/06 10:56:02;;;;;;;6.82;1.88;;;;;;;;;;6148645;23;20413;-77
2022/10/06 10:58:51;;;;;;;4.68;1.50;;;;;;;;;;6147854;23;20010;-82
2022/10/06 11:01:44;;;;;;;3.60;1.30;;;;;;;;;;6148626;23;20321;-71
2022/10/06 11:04:30;;;;;;;4.00;1.50;;;;;;;;;;6147691;23;20002;-71
2022/10/06 11:07:34;;;;;;;4.57;1.27;;;;;;;;;;6147970;23;20044;-71
2022/10/06 11:10:20;;;;;;;5.25;1.77;;;;;;;;;;6148165;23;20001;-72
2022/10/06 11:13:20;;;;;;;4.82;1.77;;;;;;;;;;6146164;23;20048;-72
2022/10/06 11:16:18;;;;;;;5.53;1.73;;;;;;;;;;6146354;23;20092;-76
2022/10/06 11:19:10;;;;;;;8.40;2.42;;;;;;;;;;6145691;23;20139;-70
2022/10/06 11:22:08;;;;;;;7.05;1.80;;;;;;;;;;6145601;23;20021;-69
2022/10/06 11:25:05;;;;;;;8.25;2.10;;;;;;;;;;6147082;23;20436;-70
2022/10/06 11:27:51;;;;;;;7.15;1.60;;;;;;;;;;6147454;23;20027;-69
2022/10/06 11:30:51;;;;;;;6.32;1.90;;;;;;;;;;6146008;23;20362;-70
2022/10/06 11:33:41;;;;;;;6.00;1.80;;;;;;;;;;6150536;23;20013;-72
2022/10/06 11:36:36;;;;;;;5.68;1.83;;;;;;;;;;6147882;23;20081;-70
2022/10/06 11:39:24;;;;;;;6.63;1.90;;;;;;;;;;6145492;23;20013;-73
2022/10/06 11:42:19;;;;;;;4.93;1.53;;;;;;;;;;6145594;23;20031;-77
2022/10/06 11:45:15;;;;;;;4.72;1.75;;;;;;;;;;6146804;23;20225;-76
2022/10/06 11:48:12;;;;;;;6.47;1.80;;;;;;;;;;6146822;23;20092;-79
2022/10/06 11:51:16;;;;;;;6.13;2.63;;;;;;;;;;6147611;23;20013;-80
2022/10/06 11:54:01;;;;;;;9.77;2.45;;;;;;;;;;6145614;23;20010;-79
2022/10/06 11:56:47;;;;;;;5.97;1.75;;;;;;;;;;6145020;23;20013;-70
2022/10/06 11:59:32;;;;;;;9.05;2.63;;;;;;;;;;6147722;23;20014;-71
2022/10/06 12:02:33;;;;;;;7.00;1.90;;;;;;;;;;6146720;23;20382;-72
2022/10/06 12:05:19;;;;;;;4.53;1.40;;;;;;;;;;6147784;23;20284;-71
2022/10/06 12:08:07;;;;;;;4.47;1.90;;;;;;;;;;6151217;22;20010;-72
2022/10/06 12:10:53;;;;;;;5.37;1.83;;;;;;;;;;6145851;23;20344;-71
2022/10/06 12:13:44;;;;;;;8.43;2.55;;;;;;;;;;6125066;23;20306;-76
2022/10/06 12:16:35;;;;;;;6.13;1.70;;;;;;;;;;6106779;23;20045;-69
2022/10/06 12:19:21;;;;;;;6.45;1.30;;;;;;;;;;6146152;23;20017;-68
2022/10/06 12:22:21;;;;;;;6.15;1.55;;;;;;;;;;6144855;23;20009;-69
2022/10/06 12:25:13;;;;;;;6.45;1.40;;;;;;;;;;6144693;23;20055;-71
2022/10/06 12:28:20;;;;;;;4.95;1.70;;;;;;;;;;6146042;22;20441;-70
2022/10/06 12:31:18;;;;;;;4.90;1.38;;;;;;;;;;6147097;23;20013;-69
2022/10/06 12:34:23;;;;;;;6.03;1.75;;;;;;;;;;6145290;23;20175;-69
2022/10/06 12:37:19;;;;;;;3.05;1.67;;;;;;;;;;6148117;23;20009;-73
2022/10/06 12:40:23;;;;;;;3.88;1.48;;;;;;;;;;6149161;23;20340;-73
2022/10/06 12:43:18;;;;;;;7.45;2.10;;;;;;;;;;6145833;23;20425;-76
2022/10/06 12:46:11;;;;;;;3.63;1.52;;;;;;;;;;6121377;23;20017;-76
2022/10/06 12:49:02;;;;;;;6.60;1.63;;;;;;;;;;6144673;23;20043;-78
2022/10/06 12:51:48;;;;;;;9.35;3.60;;;;;;;;;;6125340;23;20010;-80
2022/10/06 12:54:36;;;;;;;7.75;2.83;;;;;;;;;;6148446;23;20014;-70
2022/10/06 12:57:27;;;;;;;4.35;2.03;;;;;;;;;;6145743;23;20056;-71
2022/10/06 13:00:31;;;;;;;7.18;2.80;;;;;;;;;;6146120;23;20021;-70
2022/10/06 13:03:22;;;;;;;5.43;1.90;;;;;;;;;;6144470;23;20354;-69
2022/10/06 13:06:08;;;;;;;9.75;2.33;;;;;;;;;;6124380;22;20074;-70
2022/10/06 13:09:02;;;;;;;5.63;1.80;;;;;;;;;;6147238;23;20355;-69
2022/10/06 13:11:48;;;;;;;6.18;1.98;;;;;;;;;;6149531;23;20029;-70
2022/10/06 13:14:33;;;;;;;7.65;2.00;;;;;;;;;;6145348;23;20056;-72
2022/10/06 13:17:19;;;;;;;9.68;2.97;;;;;;;;;;6144041;23;20040;-73
2022/10/06 13:20:04;;;;;;;3.47;1.70;;;;;;;;;;6144525;23;20014;-72
2022/10/06 13:22:57;;;;;;;5.53;2.13;;;;;;;;;;6145261;23;20037;-71
2022/10/06 13:25:44;;;;;;;6.05;2.35;;;;;;;;;;6145364;23;20203;-70
2022/10/06 13:28:29;;;;;;;5.85;1.80;;;;;;;;;;6145727;23;20150;-74
2022/10/06 13:31:20;;;;;;;6.43;2.03;;;;;;;;;;6145242;23;20096;-73
2022/10/06 13:34:08;;;;;;;4.78;1.73;;;;;;;;;;6124406;23;20013;-71
2022/10/06 13:36:54;;;;;;;7.10;2.03;;;;;;;;;;6146704;23;20013;-72
2022/10/06 13:39:40;;;;;;;8.38;2.17;;;;;;;;;;6124364;23;20501;-72
2022/10/06 13:42:26;;;;;;;8.00;1.92;;;;;;;;;;6151354;23;20013;-73
2022/10/06 13:45:13;;;;;;;5.43;1.50;;;;;;;;;;6144934;23;20088;-72
2022/10/06 13:48:03;;;;;;;6.28;2.10;;;;;;;;;;6125826;23;20013;-79
2022/10/06 13:50:51;;;;;;;6.25;2.17;;;;;;;;;;6145591;23;20096;-75
2022/10/06 13:53:37;;;;;;;8.23;1.95;;;;;;;;;;6145688;23;20441;-74
2022/10/06 13:56:27;;;;;;;4.40;1.65;;;;;;;;;;6144913;23;20314;-76
2022/10/06 13:59:19;;;;;;;5.40;1.92;;;;;;;;;;6146580;23;20014;-74
2022/10/06 14:02:20;;;;;;;6.85;2.22;;;;;;;;;;6125131;23;20344;-72
2022/10/06 14:05:18;;;;;;;10.00;2.33;;;;;;;;;;6142584;23;20018;-74
2022/10/06 14:08:09;;;;;;;7.85;2.20;;;;;;;;;;6143723;23;20062;-74
2022/10/06 14:10:56;;;;;;;8.45;2.22;;;;;;;;;;6142678;23;20140;-74
2022/10/06 14:13:53;;;;;;;3.92;1.52;;;;;;;;;;6145304;23;20001;-75
2022/10/06 14:16:39;;;;;;;6.03;1.67;;;;;;;;;;6145571;23;20009;-74
2022/10/06 14:19:35;;;;;;;9.00;2.42;;;;;;;;;;6229031;22;20076;-73
2022/10/06 14:22:33;;;;;;;7.72;3.20;;;;;;;;;;6143798;23;20428;-74
2022/10/06 14:25:18;;;;;;;8.13;2.17;;;;;;;;;;6144598;23;20447;-75
2022/10/06 14:28:04;;;;;;;10.02;2.35;;;;;;;;;;6143882;23;20005;-73
2022/10/06 14:30:49;;;;;;;7.65;2.15;;;;;;;;;;6143447;23;20449;-73
2022/10/06 14:33:35;;;;;;;7.38;2.30;;;;;;;;;;6140487;23;20024;-74
2022/10/06 14:36:26;;;;;;;6.50;2.15;;;;;;;;;;6139919;23;20085;-73
2022/10/06 14:39:12;;;;;;;9.48;2.13;;;;;;;;;;6142850;23;20010;-74
2022/10/06 14:41:58;;;;;;;6.35;2.15;;;;;;;;;;6142385;23;20017;-76
2022/10/06 14:44:43;;;;;;;6.63;1.95;;;;;;;;;;6144192;23;20060;-77
2022/10/06 14:47:30;;;;;;;7.45;2.00;;;;;;;;;;6152051;23;20041;-77
2022/10/06 14:50:16;;;;;;;7.80;2.38;;;;;;;;;;6145770;23;20373;-77
2022/10/06 14:53:02;;;;;;;2.95;1.60;;;;;;;;;;6145633;23;20017;-76
2022/10/06 14:55:47;;;;;;;4.63;1.83;;;;;;;;;;6144726;23;20048;-77
2022/10/06 14:58:35;;;;;;;10.13;2.28;;;;;;;;;;6145450;23;20009;-77
2022/10/06 15:01:22;;;;;;;4.40;1.50;;;;;;;;;;6143820;23;20013;-74
2022/10/06 15:04:09;;;;;;;7.90;1.90;;;;;;;;;;6144126;23;20017;-72
2022/10/06 15:09:59;;;;;;;8.02;1.55;;;;;;;;;;6144384;23;20390;-71
2022/10/06 15:12:44;;;;;;;5.95;2.08;;;;;;;;;;6144344;23;20001;-70
2022/10/06 15:15:32;;;;;;;5.82;1.85;;;;;;;;;;6144977;23;20066;-72
2022/10/06 15:18:18;;;;;;;6.13;2.28;;;;;;;;;;6151634;23;20108;-70
2022/10/06 15:21:03;;;;;;;5.82;2.40;;;;;;;;;;6144867;23;20084;-74
2022/10/06 15:23:56;;;;;;;7.32;3.40;;;;;;;;;;6146766;23;20453;-74
2022/10/06 15:29:46;;;;;;;4.30;2.00;;;;;;;;;;6146808;23;20013;-75
2022/10/06 15:32:32;;;;;;;7.55;2.08;;;;;;;;;;6146709;23;20017;-74
2022/10/06 15:35:17;;;;;;;7.35;1.90;;;;;;;;;;6127597;22;20067;-74
2022/10/06 15:38:03;;;;;;;5.07;2.10;;;;;;;;;;6146008;23;20322;-74
2022/10/06 15:40:48;;;;;;;5.47;2.05;;;;;;;;;;6146022;23;20512;-71
2022/10/06 15:46:40;;;;;;;10.98;3.10;;;;;;;;;;6146057;23;20399;-71
2022/10/06 15:49:28;;;;;;;8.77;3.15;;;;;;;;;;6148068;23;20083;-71
2022/10/06 15:52:15;;;;;;;6.85;2.33;;;;;;;;;;6128926;22;20084;-72
2022/10/06 15:55:01;;;;;;;11.45;2.40;;;;;;;;;;6147968;22;20010;-71
2022/10/06 15:57:46;;;;;;;7.50;2.58;;;;;;;;;;6145807;23;20010;-74
2022/10/06 16:00:32;;;;;;;5.53;2.55;;;;;;;;;;6145589;23;20416;-73
2022/10/06 16:03:34;;;;;;;5.10;1.90;;;;;;;;;;6144833;23;20014;-74
2022/10/06 16:06:39;;;;;;;4.38;2.10;;;;;;;;;;6147973;22;20079;-74
2022/10/06 16:09:34;;;;;;;5.80;1.70;;;;;;;;;;6146743;23;20018;-76
2022/10/06 16:12:21;;;;;;;11.57;2.63;;;;;;;;;;6144095;23;20088;-74
2022/10/06 16:15:06;;;;;;;3.42;1.50;;;;;;;;;;6147497;23;20315;-67
2022/10/06 16:17:52;;;;;;;7.82;2.55;;;;;;;;;;6146640;23;20013;-60
2022/10/06 16:20:37;;;;;;;4.72;1.80;;;;;;;;;;6144798;23;20090;-60
2022/10/06 16:23:23;;;;;;;4.82;2.08;;;;;;;;;;6152287;23;20010;-62
2022/10/06 16:26:09;;;;;;;5.07;1.77;;;;;;;;;;6147237;23;20084;-61
2022/10/06 16:28:54;;;;;;;7.45;2.28;;;;;;;;;;6147873;22;20302;-60
2022/10/06 16:31:40;;;;;;;5.28;2.15;;;;;;;;;;6146211;22;20018;-65
2022/10/06 16:34:25;;;;;;;10.20;2.20;;;;;;;;;;6146155;23;20059;-62
2022/10/06 16:37:11;;;;;;;7.32;2.38;;;;;;;;;;6145318;23;20005;-62
2022/10/06 16:39:56;;;;;;;8.27;2.75;;;;;;;;;;6145719;23;20010;-63
2022/10/06 16:42:43;;;;;;;6.43;2.40;;;;;;;;;;6145442;23;20014;-63
2022/10/06 16:45:29;;;;;;;9.00;3.55;;;;;;;;;;6126232;22;20010;-62
2022/10/06 16:48:14;;;;;;;4.85;2.20;;;;;;;;;;6145137;23;20041;-62
2022/10/06 16:51:04;;;;;;;5.35;1.90;;;;;;;;;;6146133;23;20033;-64
2022/10/06 16:53:50;;;;;;;11.85;2.20;;;;;;;;;;6150969;23;20013;-71
2022/10/06 16:56:38;;;;;;;6.20;2.13;;;;;;;;;;6147437;23;20418;-70
2022/10/06 16:59:27;;;;;;;6.32;2.15;;;;;;;;;;6145585;23;20024;-77
2022/10/06 17:02:13;;;;;;;9.18;2.65;;;;;;;;;;6146488;23;20012;-77
2022/10/06 17:04:58;;;;;;;8.55;2.28;;;;;;;;;;6146464;23;20013;-76
2022/10/06 17:07:44;;;;;;;10.80;2.40;;;;;;;;;;6144732;23;20017;-78
2022/10/06 17:10:29;;;;;;;17.85;2.47;;;;;;;;;;6144021;23;20488;-75